sensor_id;sensor_type;location;lat;lon;timestamp;temperature;humidity
45983;DHT22;31711;47.158;7.346;2023-12-22T00:00:02;7.40;99.90
45983;DHT22;31711;47.158;7.346;2023-12-22T00:02:28;7.40;99.90
45983;DHT22;31711;47.158;7.346;2023-12-22T00:04:54;7.30;99.90
45983;DHT22;31711;47.158;7.346;2023-12-22T00:07:20;7.30;99.90
45983;DHT22;31711;47.158;7.346;2023-12-22T00:09:46;7.30;99.90
45983;DHT22;31711;47.158;7.346;2023-12-22T00:12:12;7.30;99.90
45983;DHT22;31711;47.158;7.346;2023-12-22T00:14:38;7.30;99.90
45983;DHT22;31711;47.158;7.346;2023-12-22T00:17:06;7.20;99.90
45983;DHT22;31711;47.158;7.346;2023-12-22T00:19:32;7.30;99.90
45983;DHT22;31711;47.158;7.346;2023-12-22T00:21:58;7.40;99.90
45983;DHT22;31711;47.158;7.346;2023-12-22T00:24:25;7.40;99.90
45983;DHT22;31711;47.158;7.346;2023-12-22T00:26:51;7.50;99.90
45983;DHT22;31711;47.158;7.346;2023-12-22T00:29:17;7.50;99.90
45983;DHT22;31711;47.158;7.346;2023-12-22T00:31:43;7.40;99.90
45983;DHT22;31711;47.158;7.346;2023-12-22T00:34:08;7.40;99.90
45983;DHT22;31711;47.158;7.346;2023-12-22T00:36:34;7.40;99.90
45983;DHT22;31711;47.158;7.346;2023-12-22T00:39:00;7.40;99.90
45983;DHT22;31711;47.158;7.346;2023-12-22T00:41:26;7.50;99.90
45983;DHT22;31711;47.158;7.346;2023-12-22T00:43:52;7.40;99.90
45983;DHT22;31711;47.158;7.346;2023-12-22T00:46:18;7.30;99.90
45983;DHT22;31711;47.158;7.346;2023-12-22T00:48:46;7.20;99.90
45983;DHT22;31711;47.158;7.346;2023-12-22T00:51:12;7.20;99.90
45983;DHT22;31711;47.158;7.346;2023-12-22T00:53:38;7.40;99.90
45983;DHT22;31711;47.158;7.346;2023-12-22T00:56:04;7.40;99.90
45983;DHT22;31711;47.158;7.346;2023-12-22T00:58:30;7.60;99.90
45983;DHT22;31711;47.158;7.346;2023-12-22T01:00:56;7.60;99.90
45983;DHT22;31711;47.158;7.346;2023-12-22T01:03:22;7.60;99.90
45983;DHT22;31711;47.158;7.346;2023-12-22T01:05:48;7.80;99.90
45983;DHT22;31711;47.158;7.346;2023-12-22T01:08:14;7.80;99.90
45983;DHT22;31711;47.158;7.346;2023-12-22T01:10:40;7.80;99.90
45983;DHT22;31711;47.158;7.346;2023-12-22T01:13:06;7.80;99.90
45983;DHT22;31711;47.158;7.346;2023-12-22T01:15:32;7.90;99.90
45983;DHT22;31711;47.158;7.346;2023-12-22T01:17:58;7.90;99.90
45983;DHT22;31711;47.158;7.346;2023-12-22T01:20:24;7.80;99.90
45983;DHT22;31711;47.158;7.346;2023-12-22T01:22:50;7.80;99.90
45983;DHT22;31711;47.158;7.346;2023-12-22T01:25:16;7.80;99.90
45983;DHT22;31711;47.158;7.346;2023-12-22T01:27:42;7.70;99.90
45983;DHT22;31711;47.158;7.346;2023-12-22T01:30:08;7.70;99.90
45983;DHT22;31711;47.158;7.346;2023-12-22T01:32:34;7.60;99.90
45983;DHT22;31711;47.158;7.346;2023-12-22T01:35:02;7.60;99.90
45983;DHT22;31711;47.158;7.346;2023-12-22T01:37:30;7.60;99.90
45983;DHT22;31711;47.158;7.346;2023-12-22T01:39:56;7.50;99.90
45983;DHT22;31711;47.158;7.346;2023-12-22T01:42:21;7.50;99.90
45983;DHT22;31711;47.158;7.346;2023-12-22T01:44:47;7.50;99.90
45983;DHT22;31711;47.158;7.346;2023-12-22T01:47:14;7.40;99.90
45983;DHT22;31711;47.158;7.346;2023-12-22T01:49:40;7.40;99.90
45983;DHT22;31711;47.158;7.346;2023-12-22T01:52:07;7.30;99.90
45983;DHT22;31711;47.158;7.346;2023-12-22T01:54:33;7.20;99.90
45983;DHT22;31711;47.158;7.346;2023-12-22T01:57:00;7.30;99.90
45983;DHT22;31711;47.158;7.346;2023-12-22T01:59:26;7.50;99.90
45983;DHT22;31711;47.158;7.346;2023-12-22T02:01:53;7.50;99.90
45983;DHT22;31711;47.158;7.346;2023-12-22T02:04:20;7.50;99.90
45983;DHT22;31711;47.158;7.346;2023-12-22T02:06:46;7.40;99.90
45983;DHT22;31711;47.158;7.346;2023-12-22T02:09:12;7.50;99.90
45983;DHT22;31711;47.158;7.346;2023-12-22T02:11:39;7.60;99.90
45983;DHT22;31711;47.158;7.346;2023-12-22T02:14:05;7.60;99.90
45983;DHT22;31711;47.158;7.346;2023-12-22T02:16:46;7.80;99.90
45983;DHT22;31711;47.158;7.346;2023-12-22T02:22:04;7.80;99.90
45983;DHT22;31711;47.158;7.346;2023-12-22T02:24:30;7.80;99.90
45983;DHT22;31711;47.158;7.346;2023-12-22T02:29:32;7.70;99.90
45983;DHT22;31711;47.158;7.346;2023-12-22T02:32:03;7.80;99.90
45983;DHT22;31711;47.158;7.346;2023-12-22T02:34:35;8.00;99.90
45983;DHT22;31711;47.158;7.346;2023-12-22T02:37:03;7.90;99.90
45983;DHT22;31711;47.158;7.346;2023-12-22T02:39:29;7.80;99.90
45983;DHT22;31711;47.158;7.346;2023-12-22T02:41:56;7.70;99.90
45983;DHT22;31711;47.158;7.346;2023-12-22T02:44:22;7.60;99.90
45983;DHT22;31711;47.158;7.346;2023-12-22T02:46:48;7.50;99.90
45983;DHT22;31711;47.158;7.346;2023-12-22T02:49:14;7.50;99.90
45983;DHT22;31711;47.158;7.346;2023-12-22T02:51:40;7.40;99.90
45983;DHT22;31711;47.158;7.346;2023-12-22T02:54:06;7.50;99.90
45983;DHT22;31711;47.158;7.346;2023-12-22T02:56:32;7.50;99.90
45983;DHT22;31711;47.158;7.346;2023-12-22T02:58:58;7.50;99.90
45983;DHT22;31711;47.158;7.346;2023-12-22T03:01:24;7.50;99.90
45983;DHT22;31711;47.158;7.346;2023-12-22T03:03:50;7.50;99.90
45983;DHT22;31711;47.158;7.346;2023-12-22T03:06:16;7.40;99.90
45983;DHT22;31711;47.158;7.346;2023-12-22T03:08:42;7.30;99.90
45983;DHT22;31711;47.158;7.346;2023-12-22T03:11:08;7.30;99.90
45983;DHT22;31711;47.158;7.346;2023-12-22T03:13:34;7.20;99.90
45983;DHT22;31711;47.158;7.346;2023-12-22T03:16:00;7.20;99.90
45983;DHT22;31711;47.158;7.346;2023-12-22T03:18:26;7.20;99.90
45983;DHT22;31711;47.158;7.346;2023-12-22T03:20:52;7.20;99.90
45983;DHT22;31711;47.158;7.346;2023-12-22T03:23:17;7.10;99.90
45983;DHT22;31711;47.158;7.346;2023-12-22T03:25:43;7.10;99.90
45983;DHT22;31711;47.158;7.346;2023-12-22T03:28:09;7.20;99.90
45983;DHT22;31711;47.158;7.346;2023-12-22T03:30:35;7.30;99.90
45983;DHT22;31711;47.158;7.346;2023-12-22T03:33:03;7.30;99.90
45983;DHT22;31711;47.158;7.346;2023-12-22T03:35:29;7.30;99.90
45983;DHT22;31711;47.158;7.346;2023-12-22T03:37:55;7.40;99.90
45983;DHT22;31711;47.158;7.346;2023-12-22T03:40:21;7.40;99.90
45983;DHT22;31711;47.158;7.346;2023-12-22T03:42:47;7.60;99.90
45983;DHT22;31711;47.158;7.346;2023-12-22T03:45:13;7.70;99.90
45983;DHT22;31711;47.158;7.346;2023-12-22T03:47:39;7.80;99.90
45983;DHT22;31711;47.158;7.346;2023-12-22T03:50:05;7.80;99.90
45983;DHT22;31711;47.158;7.346;2023-12-22T03:52:32;7.80;99.90
45983;DHT22;31711;47.158;7.346;2023-12-22T03:54:58;7.80;99.90
45983;DHT22;31711;47.158;7.346;2023-12-22T03:57:24;7.80;99.90
45983;DHT22;31711;47.158;7.346;2023-12-22T03:59:50;7.70;99.90
45983;DHT22;31711;47.158;7.346;2023-12-22T04:02:16;7.70;99.90
45983;DHT22;31711;47.158;7.346;2023-12-22T04:04:42;7.70;99.90
45983;DHT22;31711;47.158;7.346;2023-12-22T04:07:08;7.80;99.90
45983;DHT22;31711;47.158;7.346;2023-12-22T04:09:37;7.80;99.90
45983;DHT22;31711;47.158;7.346;2023-12-22T04:12:04;7.70;99.90
45983;DHT22;31711;47.158;7.346;2023-12-22T04:14:30;7.80;99.90
45983;DHT22;31711;47.158;7.346;2023-12-22T04:16:56;7.80;99.90
45983;DHT22;31711;47.158;7.346;2023-12-22T04:19:23;7.60;99.90
45983;DHT22;31711;47.158;7.346;2023-12-22T04:21:49;7.50;99.90
45983;DHT22;31711;47.158;7.346;2023-12-22T04:24:14;7.40;99.90
45983;DHT22;31711;47.158;7.346;2023-12-22T04:26:40;7.40;99.90
45983;DHT22;31711;47.158;7.346;2023-12-22T04:29:06;7.30;99.90
45983;DHT22;31711;47.158;7.346;2023-12-22T04:31:32;7.20;99.90
45983;DHT22;31711;47.158;7.346;2023-12-22T04:33:58;7.10;99.90
45983;DHT22;31711;47.158;7.346;2023-12-22T04:36:24;7.10;99.90
45983;DHT22;31711;47.158;7.346;2023-12-22T04:38:50;7.10;99.90
45983;DHT22;31711;47.158;7.346;2023-12-22T04:41:16;7.10;99.90
45983;DHT22;31711;47.158;7.346;2023-12-22T04:43:42;7.10;99.90
45983;DHT22;31711;47.158;7.346;2023-12-22T04:46:08;7.10;99.90
45983;DHT22;31711;47.158;7.346;2023-12-22T04:48:34;7.10;99.90
45983;DHT22;31711;47.158;7.346;2023-12-22T04:51:00;7.10;99.90
45983;DHT22;31711;47.158;7.346;2023-12-22T04:53:26;7.00;99.90
45983;DHT22;31711;47.158;7.346;2023-12-22T04:55:52;7.00;99.90
45983;DHT22;31711;47.158;7.346;2023-12-22T04:58:18;7.00;99.90
45983;DHT22;31711;47.158;7.346;2023-12-22T05:00:44;7.00;99.90
45983;DHT22;31711;47.158;7.346;2023-12-22T05:03:09;6.90;99.90
45983;DHT22;31711;47.158;7.346;2023-12-22T05:05:35;6.90;99.90
45983;DHT22;31711;47.158;7.346;2023-12-22T05:08:01;6.80;99.90
45983;DHT22;31711;47.158;7.346;2023-12-22T05:10:28;6.90;99.90
45983;DHT22;31711;47.158;7.346;2023-12-22T05:12:54;6.80;99.90
45983;DHT22;31711;47.158;7.346;2023-12-22T05:15:20;6.70;99.90
45983;DHT22;31711;47.158;7.346;2023-12-22T05:17:46;6.70;99.90
45983;DHT22;31711;47.158;7.346;2023-12-22T05:20:12;6.80;99.90
45983;DHT22;31711;47.158;7.346;2023-12-22T05:22:38;6.70;99.90
45983;DHT22;31711;47.158;7.346;2023-12-22T05:25:05;6.60;99.90
45983;DHT22;31711;47.158;7.346;2023-12-22T05:27:31;6.60;99.90
45983;DHT22;31711;47.158;7.346;2023-12-22T05:29:57;6.60;99.90
45983;DHT22;31711;47.158;7.346;2023-12-22T05:32:27;6.60;99.90
45983;DHT22;31711;47.158;7.346;2023-12-22T05:34:53;6.60;99.90
45983;DHT22;31711;47.158;7.346;2023-12-22T05:37:19;6.50;99.90
45983;DHT22;31711;47.158;7.346;2023-12-22T05:39:45;6.50;99.90
45983;DHT22;31711;47.158;7.346;2023-12-22T05:42:11;6.50;99.90
45983;DHT22;31711;47.158;7.346;2023-12-22T05:44:37;6.50;99.90
45983;DHT22;31711;47.158;7.346;2023-12-22T05:47:04;6.50;99.90
45983;DHT22;31711;47.158;7.346;2023-12-22T05:49:30;6.50;99.90
45983;DHT22;31711;47.158;7.346;2023-12-22T05:51:56;6.50;99.90
45983;DHT22;31711;47.158;7.346;2023-12-22T05:54:22;6.50;99.90
45983;DHT22;31711;47.158;7.346;2023-12-22T05:56:50;6.50;99.90
45983;DHT22;31711;47.158;7.346;2023-12-22T05:59:17;6.50;99.90
45983;DHT22;31711;47.158;7.346;2023-12-22T06:01:43;6.50;99.90
45983;DHT22;31711;47.158;7.346;2023-12-22T06:04:10;6.60;99.90
45983;DHT22;31711;47.158;7.346;2023-12-22T06:06:37;6.60;99.90
45983;DHT22;31711;47.158;7.346;2023-12-22T06:09:04;6.60;99.90
45983;DHT22;31711;47.158;7.346;2023-12-22T06:11:31;6.60;99.90
45983;DHT22;31711;47.158;7.346;2023-12-22T06:13:57;6.60;99.90
45983;DHT22;31711;47.158;7.346;2023-12-22T06:16:23;6.60;99.90
45983;DHT22;31711;47.158;7.346;2023-12-22T06:18:49;6.70;99.90
45983;DHT22;31711;47.158;7.346;2023-12-22T06:21:15;6.70;99.90
45983;DHT22;31711;47.158;7.346;2023-12-22T06:23:41;6.70;99.90
45983;DHT22;31711;47.158;7.346;2023-12-22T06:26:10;6.70;99.90
45983;DHT22;31711;47.158;7.346;2023-12-22T06:28:37;6.70;99.90
45983;DHT22;31711;47.158;7.346;2023-12-22T06:31:04;6.70;99.90
45983;DHT22;31711;47.158;7.346;2023-12-22T06:33:30;6.70;99.90
45983;DHT22;31711;47.158;7.346;2023-12-22T06:35:56;6.70;99.90
45983;DHT22;31711;47.158;7.346;2023-12-22T06:38:22;6.70;99.90
45983;DHT22;31711;47.158;7.346;2023-12-22T06:40:48;6.70;99.90
45983;DHT22;31711;47.158;7.346;2023-12-22T06:43:14;6.80;99.90
45983;DHT22;31711;47.158;7.346;2023-12-22T06:45:40;6.80;99.90
45983;DHT22;31711;47.158;7.346;2023-12-22T06:48:07;7.00;99.90
45983;DHT22;31711;47.158;7.346;2023-12-22T06:50:35;7.00;99.90
45983;DHT22;31711;47.158;7.346;2023-12-22T06:53:02;7.00;99.90
45983;DHT22;31711;47.158;7.346;2023-12-22T06:55:29;7.00;99.90
45983;DHT22;31711;47.158;7.346;2023-12-22T06:57:56;7.00;99.90
45983;DHT22;31711;47.158;7.346;2023-12-22T07:00:22;7.10;99.90
45983;DHT22;31711;47.158;7.346;2023-12-22T07:02:48;7.10;99.90
45983;DHT22;31711;47.158;7.346;2023-12-22T07:07:49;7.10;99.90
45983;DHT22;31711;47.158;7.346;2023-12-22T07:10:15;7.10;99.90
45983;DHT22;31711;47.158;7.346;2023-12-22T07:12:41;7.10;99.90
45983;DHT22;31711;47.158;7.346;2023-12-22T07:15:07;7.00;99.90
45983;DHT22;31711;47.158;7.346;2023-12-22T07:17:34;7.00;99.90
45983;DHT22;31711;47.158;7.346;2023-12-22T07:20:00;7.00;99.90
45983;DHT22;31711;47.158;7.346;2023-12-22T07:22:29;6.90;99.90
45983;DHT22;31711;47.158;7.346;2023-12-22T07:24:55;6.90;99.90
45983;DHT22;31711;47.158;7.346;2023-12-22T07:27:22;6.90;99.90
45983;DHT22;31711;47.158;7.346;2023-12-22T07:29:48;6.90;99.90
45983;DHT22;31711;47.158;7.346;2023-12-22T07:32:14;6.90;99.90
45983;DHT22;31711;47.158;7.346;2023-12-22T07:34:40;7.00;99.90
45983;DHT22;31711;47.158;7.346;2023-12-22T07:37:06;7.00;99.90
45983;DHT22;31711;47.158;7.346;2023-12-22T07:39:32;7.00;99.90
45983;DHT22;31711;47.158;7.346;2023-12-22T07:41:57;7.00;99.90
45983;DHT22;31711;47.158;7.346;2023-12-22T07:44:23;6.90;99.90
45983;DHT22;31711;47.158;7.346;2023-12-22T07:46:59;6.90;99.90
45983;DHT22;31711;47.158;7.346;2023-12-22T07:49:25;6.90;99.90
45983;DHT22;31711;47.158;7.346;2023-12-22T07:51:52;6.90;99.90
45983;DHT22;31711;47.158;7.346;2023-12-22T07:54:18;6.80;99.90
45983;DHT22;31711;47.158;7.346;2023-12-22T07:56:44;6.90;99.90
45983;DHT22;31711;47.158;7.346;2023-12-22T07:59:10;6.90;99.90
45983;DHT22;31711;47.158;7.346;2023-12-22T08:01:36;6.80;99.90
45983;DHT22;31711;47.158;7.346;2023-12-22T08:04:02;6.80;99.90
45983;DHT22;31711;47.158;7.346;2023-12-22T08:06:28;6.80;99.90
45983;DHT22;31711;47.158;7.346;2023-12-22T08:08:54;6.80;99.90
45983;DHT22;31711;47.158;7.346;2023-12-22T08:11:21;6.70;99.90
45983;DHT22;31711;47.158;7.346;2023-12-22T08:13:49;6.70;99.90
45983;DHT22;31711;47.158;7.346;2023-12-22T08:16:15;6.70;99.90
45983;DHT22;31711;47.158;7.346;2023-12-22T08:18:41;6.70;99.90
45983;DHT22;31711;47.158;7.346;2023-12-22T08:21:07;6.70;99.90
45983;DHT22;31711;47.158;7.346;2023-12-22T08:23:33;6.60;99.90
45983;DHT22;31711;47.158;7.346;2023-12-22T08:25:59;6.60;99.90
45983;DHT22;31711;47.158;7.346;2023-12-22T08:28:25;6.60;99.90
45983;DHT22;31711;47.158;7.346;2023-12-22T08:30:51;6.60;99.90
45983;DHT22;31711;47.158;7.346;2023-12-22T08:33:18;6.60;99.90
45983;DHT22;31711;47.158;7.346;2023-12-22T08:35:44;6.60;99.90
45983;DHT22;31711;47.158;7.346;2023-12-22T08:38:10;6.60;99.90
45983;DHT22;31711;47.158;7.346;2023-12-22T08:40:36;6.60;99.90
45983;DHT22;31711;47.158;7.346;2023-12-22T08:43:02;6.60;99.90
45983;DHT22;31711;47.158;7.346;2023-12-22T08:45:28;6.60;99.90
45983;DHT22;31711;47.158;7.346;2023-12-22T08:47:55;6.60;99.90
45983;DHT22;31711;47.158;7.346;2023-12-22T08:50:21;6.70;99.90
45983;DHT22;31711;47.158;7.346;2023-12-22T08:52:47;6.70;99.90
45983;DHT22;31711;47.158;7.346;2023-12-22T08:55:13;6.70;99.90
45983;DHT22;31711;47.158;7.346;2023-12-22T08:57:40;6.70;99.90
45983;DHT22;31711;47.158;7.346;2023-12-22T09:00:06;6.80;99.90
45983;DHT22;31711;47.158;7.346;2023-12-22T09:02:32;6.90;99.90
45983;DHT22;31711;47.158;7.346;2023-12-22T09:04:58;6.80;99.90
45983;DHT22;31711;47.158;7.346;2023-12-22T09:07:24;7.00;99.90
45983;DHT22;31711;47.158;7.346;2023-12-22T09:09:50;7.10;99.90
45983;DHT22;31711;47.158;7.346;2023-12-22T09:12:16;7.20;99.90
45983;DHT22;31711;47.158;7.346;2023-12-22T09:14:42;7.30;99.90
45983;DHT22;31711;47.158;7.346;2023-12-22T09:17:08;7.30;99.90
45983;DHT22;31711;47.158;7.346;2023-12-22T09:19:34;7.40;99.90
45983;DHT22;31711;47.158;7.346;2023-12-22T09:22:04;7.50;99.90
45983;DHT22;31711;47.158;7.346;2023-12-22T09:24:30;7.50;99.90
45983;DHT22;31711;47.158;7.346;2023-12-22T09:26:56;7.60;99.90
45983;DHT22;31711;47.158;7.346;2023-12-22T09:29:31;7.70;99.90
45983;DHT22;31711;47.158;7.346;2023-12-22T09:31:59;7.70;99.90
45983;DHT22;31711;47.158;7.346;2023-12-22T09:34:26;7.80;99.90
45983;DHT22;31711;47.158;7.346;2023-12-22T09:36:54;7.70;99.90
45983;DHT22;31711;47.158;7.346;2023-12-22T09:39:20;7.70;99.90
45983;DHT22;31711;47.158;7.346;2023-12-22T09:41:48;7.70;99.90
45983;DHT22;31711;47.158;7.346;2023-12-22T09:44:19;7.70;99.90
45983;DHT22;31711;47.158;7.346;2023-12-22T09:46:48;7.70;99.90
45983;DHT22;31711;47.158;7.346;2023-12-22T09:49:20;7.70;99.90
45983;DHT22;31711;47.158;7.346;2023-12-22T09:51:47;7.70;99.90
45983;DHT22;31711;47.158;7.346;2023-12-22T09:54:15;7.70;99.90
45983;DHT22;31711;47.158;7.346;2023-12-22T09:56:42;7.70;99.90
45983;DHT22;31711;47.158;7.346;2023-12-22T09:59:11;7.60;99.90
45983;DHT22;31711;47.158;7.346;2023-12-22T10:01:43;7.60;99.90
45983;DHT22;31711;47.158;7.346;2023-12-22T10:04:10;7.60;99.90
45983;DHT22;31711;47.158;7.346;2023-12-22T10:06:36;7.50;99.90
45983;DHT22;31711;47.158;7.346;2023-12-22T10:09:03;7.50;99.90
45983;DHT22;31711;47.158;7.346;2023-12-22T10:11:32;7.50;99.90
45983;DHT22;31711;47.158;7.346;2023-12-22T10:14:00;7.40;99.90
45983;DHT22;31711;47.158;7.346;2023-12-22T10:16:28;7.40;99.90
45983;DHT22;31711;47.158;7.346;2023-12-22T10:18:54;7.30;99.90
45983;DHT22;31711;47.158;7.346;2023-12-22T10:21:20;7.20;99.90
45983;DHT22;31711;47.158;7.346;2023-12-22T10:23:46;7.20;99.90
45983;DHT22;31711;47.158;7.346;2023-12-22T10:26:12;7.20;99.90
45983;DHT22;31711;47.158;7.346;2023-12-22T10:28:38;7.10;99.90
45983;DHT22;31711;47.158;7.346;2023-12-22T10:31:05;7.10;99.90
45983;DHT22;31711;47.158;7.346;2023-12-22T10:33:33;7.10;99.90
45983;DHT22;31711;47.158;7.346;2023-12-22T10:36:02;7.10;99.90
45983;DHT22;31711;47.158;7.346;2023-12-22T10:38:33;7.00;99.90
45983;DHT22;31711;47.158;7.346;2023-12-22T10:41:04;7.00;99.90
45983;DHT22;31711;47.158;7.346;2023-12-22T10:43:36;7.00;99.90
45983;DHT22;31711;47.158;7.346;2023-12-22T10:46:03;7.00;99.90
45983;DHT22;31711;47.158;7.346;2023-12-22T10:48:29;7.10;99.90
45983;DHT22;31711;47.158;7.346;2023-12-22T10:50:55;7.10;99.90
45983;DHT22;31711;47.158;7.346;2023-12-22T10:53:21;7.10;99.90
45983;DHT22;31711;47.158;7.346;2023-12-22T10:55:48;7.10;99.90
45983;DHT22;31711;47.158;7.346;2023-12-22T10:58:18;7.10;99.90
45983;DHT22;31711;47.158;7.346;2023-12-22T11:00:45;7.10;99.90
45983;DHT22;31711;47.158;7.346;2023-12-22T11:03:16;7.10;99.90
45983;DHT22;31711;47.158;7.346;2023-12-22T11:05:46;7.10;99.90
45983;DHT22;31711;47.158;7.346;2023-12-22T11:08:13;7.00;99.90
45983;DHT22;31711;47.158;7.346;2023-12-22T11:10:42;6.90;99.90
45983;DHT22;31711;47.158;7.346;2023-12-22T11:13:12;6.90;99.90
45983;DHT22;31711;47.158;7.346;2023-12-22T11:15:39;6.90;99.90
45983;DHT22;31711;47.158;7.346;2023-12-22T11:18:06;6.90;99.90
45983;DHT22;31711;47.158;7.346;2023-12-22T11:20:33;6.80;99.90
45983;DHT22;31711;47.158;7.346;2023-12-22T11:23:01;6.90;99.90
45983;DHT22;31711;47.158;7.346;2023-12-22T11:25:28;6.90;99.90
45983;DHT22;31711;47.158;7.346;2023-12-22T11:27:56;6.90;99.90
45983;DHT22;31711;47.158;7.346;2023-12-22T11:30:25;6.90;99.90
45983;DHT22;31711;47.158;7.346;2023-12-22T11:32:53;6.90;99.90
45983;DHT22;31711;47.158;7.346;2023-12-22T11:35:22;7.00;99.90
45983;DHT22;31711;47.158;7.346;2023-12-22T11:37:49;7.00;99.90
45983;DHT22;31711;47.158;7.346;2023-12-22T11:40:15;7.00;99.90
45983;DHT22;31711;47.158;7.346;2023-12-22T11:42:45;7.00;99.90
45983;DHT22;31711;47.158;7.346;2023-12-22T11:45:13;7.00;99.90
45983;DHT22;31711;47.158;7.346;2023-12-22T11:47:42;7.00;99.90
45983;DHT22;31711;47.158;7.346;2023-12-22T11:50:11;7.00;99.90
45983;DHT22;31711;47.158;7.346;2023-12-22T11:52:38;7.00;99.90
45983;DHT22;31711;47.158;7.346;2023-12-22T11:55:05;7.10;99.90
45983;DHT22;31711;47.158;7.346;2023-12-22T11:57:36;7.10;99.90
45983;DHT22;31711;47.158;7.346;2023-12-22T12:02:54;7.10;99.90
45983;DHT22;31711;47.158;7.346;2023-12-22T12:05:20;7.10;99.90
45983;DHT22;31711;47.158;7.346;2023-12-22T12:07:47;7.10;99.90
45983;DHT22;31711;47.158;7.346;2023-12-22T12:13:13;7.00;99.90
45983;DHT22;31711;47.158;7.346;2023-12-22T12:15:41;7.10;99.90
45983;DHT22;31711;47.158;7.346;2023-12-22T12:18:08;7.00;99.90
45983;DHT22;31711;47.158;7.346;2023-12-22T12:20:35;7.10;99.90
45983;DHT22;31711;47.158;7.346;2023-12-22T12:23:01;7.00;99.90
45983;DHT22;31711;47.158;7.346;2023-12-22T12:25:29;7.00;99.90
45983;DHT22;31711;47.158;7.346;2023-12-22T12:28:02;7.10;99.90
45983;DHT22;31711;47.158;7.346;2023-12-22T12:30:28;7.10;99.90
45983;DHT22;31711;47.158;7.346;2023-12-22T12:32:54;7.10;99.90
45983;DHT22;31711;47.158;7.346;2023-12-22T12:35:28;7.10;99.90
45983;DHT22;31711;47.158;7.346;2023-12-22T12:37:55;7.20;99.90
45983;DHT22;31711;47.158;7.346;2023-12-22T12:40:24;7.20;99.90
45983;DHT22;31711;47.158;7.346;2023-12-22T12:42:50;7.20;99.90
45983;DHT22;31711;47.158;7.346;2023-12-22T12:45:22;7.20;99.90
45983;DHT22;31711;47.158;7.346;2023-12-22T12:47:59;7.20;99.90
45983;DHT22;31711;47.158;7.346;2023-12-22T12:50:26;7.20;99.90
45983;DHT22;31711;47.158;7.346;2023-12-22T12:52:52;7.20;99.90
45983;DHT22;31711;47.158;7.346;2023-12-22T12:55:23;7.10;99.90
45983;DHT22;31711;47.158;7.346;2023-12-22T12:57:53;7.20;99.90
45983;DHT22;31711;47.158;7.346;2023-12-22T13:00:33;7.20;99.90
45983;DHT22;31711;47.158;7.346;2023-12-22T13:03:05;7.20;99.90
45983;DHT22;31711;47.158;7.346;2023-12-22T13:05:32;7.20;99.90
45983;DHT22;31711;47.158;7.346;2023-12-22T13:08:12;7.20;99.90
45983;DHT22;31711;47.158;7.346;2023-12-22T13:10:40;7.20;99.90
45983;DHT22;31711;47.158;7.346;2023-12-22T13:13:06;7.20;99.90
45983;DHT22;31711;47.158;7.346;2023-12-22T13:15:33;7.20;99.90
45983;DHT22;31711;47.158;7.346;2023-12-22T13:17:59;7.20;99.90
45983;DHT22;31711;47.158;7.346;2023-12-22T13:20:25;7.20;99.90
45983;DHT22;31711;47.158;7.346;2023-12-22T13:22:51;7.20;99.90
45983;DHT22;31711;47.158;7.346;2023-12-22T13:25:17;7.20;99.90
45983;DHT22;31711;47.158;7.346;2023-12-22T13:27:47;7.20;99.90
45983;DHT22;31711;47.158;7.346;2023-12-22T13:30:34;7.20;99.90
45983;DHT22;31711;47.158;7.346;2023-12-22T13:33:01;7.30;99.90
45983;DHT22;31711;47.158;7.346;2023-12-22T13:35:27;7.30;99.90
45983;DHT22;31711;47.158;7.346;2023-12-22T13:37:54;7.20;99.90
45983;DHT22;31711;47.158;7.346;2023-12-22T13:40:21;7.30;99.90
45983;DHT22;31711;47.158;7.346;2023-12-22T13:42:59;7.30;99.90
45983;DHT22;31711;47.158;7.346;2023-12-22T13:45:28;7.30;99.90
45983;DHT22;31711;47.158;7.346;2023-12-22T13:47:55;7.30;99.90
45983;DHT22;31711;47.158;7.346;2023-12-22T13:50:21;7.30;99.90
45983;DHT22;31711;47.158;7.346;2023-12-22T13:52:50;7.30;99.90
45983;DHT22;31711;47.158;7.346;2023-12-22T13:55:18;7.30;99.90
45983;DHT22;31711;47.158;7.346;2023-12-22T13:57:45;7.30;99.90
45983;DHT22;31711;47.158;7.346;2023-12-22T14:02:46;7.30;99.90
45983;DHT22;31711;47.158;7.346;2023-12-22T14:05:15;7.30;99.90
45983;DHT22;31711;47.158;7.346;2023-12-22T14:07:43;7.30;99.90
45983;DHT22;31711;47.158;7.346;2023-12-22T14:10:10;7.30;99.90
45983;DHT22;31711;47.158;7.346;2023-12-22T14:12:40;7.40;99.90
45983;DHT22;31711;47.158;7.346;2023-12-22T14:17:32;7.30;99.90
45983;DHT22;31711;47.158;7.346;2023-12-22T14:19:58;7.40;99.90
45983;DHT22;31711;47.158;7.346;2023-12-22T14:22:24;7.40;99.90
45983;DHT22;31711;47.158;7.346;2023-12-22T14:24:50;7.40;99.90
45983;DHT22;31711;47.158;7.346;2023-12-22T14:27:16;7.40;99.90
45983;DHT22;31711;47.158;7.346;2023-12-22T14:29:45;7.40;99.90
45983;DHT22;31711;47.158;7.346;2023-12-22T14:32:11;7.40;99.90
45983;DHT22;31711;47.158;7.346;2023-12-22T14:34:38;7.40;99.90
45983;DHT22;31711;47.158;7.346;2023-12-22T14:37:04;7.40;99.90
45983;DHT22;31711;47.158;7.346;2023-12-22T14:39:30;7.40;99.90
45983;DHT22;31711;47.158;7.346;2023-12-22T14:41:57;7.40;99.90
45983;DHT22;31711;47.158;7.346;2023-12-22T14:44:23;7.50;99.90
45983;DHT22;31711;47.158;7.346;2023-12-22T14:46:49;7.50;99.90
45983;DHT22;31711;47.158;7.346;2023-12-22T14:49:15;7.50;99.90
45983;DHT22;31711;47.158;7.346;2023-12-22T14:51:41;7.50;99.90
45983;DHT22;31711;47.158;7.346;2023-12-22T14:54:07;7.50;99.90
45983;DHT22;31711;47.158;7.346;2023-12-22T14:56:40;7.50;99.90
45983;DHT22;31711;47.158;7.346;2023-12-22T14:59:10;7.50;99.90
45983;DHT22;31711;47.158;7.346;2023-12-22T15:01:40;7.50;99.90
45983;DHT22;31711;47.158;7.346;2023-12-22T15:04:06;7.50;99.90
45983;DHT22;31711;47.158;7.346;2023-12-22T15:06:32;7.50;99.90
45983;DHT22;31711;47.158;7.346;2023-12-22T15:09:00;7.50;99.90
45983;DHT22;31711;47.158;7.346;2023-12-22T15:11:27;7.50;99.90
45983;DHT22;31711;47.158;7.346;2023-12-22T15:13:53;7.50;99.90
45983;DHT22;31711;47.158;7.346;2023-12-22T15:16:18;7.50;99.90
45983;DHT22;31711;47.158;7.346;2023-12-22T15:18:47;7.50;99.90
45983;DHT22;31711;47.158;7.346;2023-12-22T15:21:20;7.50;99.90
45983;DHT22;31711;47.158;7.346;2023-12-22T15:23:47;7.50;99.90
45983;DHT22;31711;47.158;7.346;2023-12-22T15:26:23;7.50;99.90
45983;DHT22;31711;47.158;7.346;2023-12-22T15:28:51;7.50;99.90
45983;DHT22;31711;47.158;7.346;2023-12-22T15:31:17;7.50;99.90
45983;DHT22;31711;47.158;7.346;2023-12-22T15:33:43;7.50;99.90
45983;DHT22;31711;47.158;7.346;2023-12-22T15:36:09;7.50;99.90
45983;DHT22;31711;47.158;7.346;2023-12-22T15:38:35;7.50;99.90
45983;DHT22;31711;47.158;7.346;2023-12-22T15:41:02;7.60;99.90
45983;DHT22;31711;47.158;7.346;2023-12-22T15:43:28;7.60;99.90
45983;DHT22;31711;47.158;7.346;2023-12-22T15:45:55;7.60;99.90
45983;DHT22;31711;47.158;7.346;2023-12-22T15:48:21;7.60;99.90
45983;DHT22;31711;47.158;7.346;2023-12-22T15:50:47;7.60;99.90
45983;DHT22;31711;47.158;7.346;2023-12-22T15:53:13;7.60;99.90
45983;DHT22;31711;47.158;7.346;2023-12-22T15:55:39;7.60;99.90
45983;DHT22;31711;47.158;7.346;2023-12-22T15:58:08;7.60;99.90
45983;DHT22;31711;47.158;7.346;2023-12-22T16:00:35;7.60;99.90